Time;durP1;ratioP1;P1;durP2;ratioP2;P2;SDS_P1;SDS_P2;PMS_P1;PMS_P2;Temp;Humidity;BMP_temperature;BMP_pressure;BME280_temperature;BME280_humidity;BME280_pressure;Samples;Min_cycle;Max_cycle;Signal;HPM_P1;HPM_P2
2022/05/07 00:02:18;;;;;;;11.30;10.30;;;;;;;;;;5069633;28;20448;-74
2022/05/07 00:04:45;;;;;;;10.40;9.40;;;;;;;;;;5069613;28;20447;-76
2022/05/07 00:07:14;;;;;;;10.90;9.93;;;;;;;;;;5069576;28;20484;-75
2022/05/07 00:09:41;;;;;;;11.90;10.90;;;;;;;;;;5069589;28;20448;-76
2022/05/07 00:12:08;;;;;;;12.40;10.20;;;;;;;;;;5069554;28;20843;-76
2022/05/07 00:14:35;;;;;;;12.00;10.80;;;;;;;;;;5069421;28;20440;-74
2022/05/07 00:19:47;;;;;;;11.67;10.40;;;;;;;;;;5070064;28;20451;-76
2022/05/07 00:22:16;;;;;;;12.27;11.07;;;;;;;;;;5069223;28;20517;-75
2022/05/07 00:24:43;;;;;;;11.20;10.10;;;;;;;;;;5069234;28;20441;-76
2022/05/07 00:27:12;;;;;;;11.60;10.37;;;;;;;;;;5069008;28;20472;-75
2022/05/07 00:29:39;;;;;;;14.37;10.83;;;;;;;;;;5069455;28;20475;-76
2022/05/07 00:32:07;;;;;;;12.17;11.17;;;;;;;;;;5069265;28;20433;-75
2022/05/07 00:34:34;;;;;;;11.70;10.63;;;;;;;;;;5068958;28;20857;-76
2022/05/07 00:37:01;;;;;;;12.57;11.57;;;;;;;;;;5068862;28;20463;-76
2022/05/07 00:39:29;;;;;;;12.87;11.53;;;;;;;;;;5069251;28;20451;-75
2022/05/07 00:41:56;;;;;;;11.30;10.20;;;;;;;;;;5069383;28;20476;-75
2022/05/07 00:44:23;;;;;;;13.40;12.20;;;;;;;;;;5068865;28;20862;-75
2022/05/07 00:46:51;;;;;;;12.57;11.37;;;;;;;;;;5068919;28;20460;-76
2022/05/07 00:49:19;;;;;;;12.87;10.70;;;;;;;;;;5070082;28;20455;-75
2022/05/07 00:51:45;;;;;;;11.70;10.57;;;;;;;;;;5073137;28;20440;-74
2022/05/07 00:54:12;;;;;;;15.00;11.00;;;;;;;;;;5072603;28;20438;-75
2022/05/07 00:56:41;;;;;;;12.43;11.33;;;;;;;;;;5072679;28;20465;-76
2022/05/07 00:59:08;;;;;;;12.50;11.20;;;;;;;;;;5072794;28;20452;-75
2022/05/07 01:01:35;;;;;;;11.63;10.53;;;;;;;;;;5072145;28;20472;-74
2022/05/07 01:04:02;;;;;;;12.40;11.10;;;;;;;;;;5072222;28;20552;-76
2022/05/07 01:06:30;;;;;;;12.17;11.07;;;;;;;;;;5072361;28;20987;-75
2022/05/07 01:08:57;;;;;;;11.53;10.37;;;;;;;;;;5072504;28;20484;-75
2022/05/07 01:11:24;;;;;;;11.57;10.57;;;;;;;;;;5072549;28;20857;-76
2022/05/07 01:13:54;;;;;;;11.40;10.33;;;;;;;;;;5072234;28;20440;-75
2022/05/07 01:16:21;;;;;;;12.07;10.90;;;;;;;;;;5072127;28;20444;-76
2022/05/07 01:18:48;;;;;;;12.37;11.30;;;;;;;;;;5072787;28;20445;-76
2022/05/07 01:21:17;;;;;;;11.60;10.60;;;;;;;;;;5072492;28;20537;-75
2022/05/07 01:23:44;;;;;;;13.30;10.97;;;;;;;;;;5072487;28;20562;-76
2022/05/07 01:26:12;;;;;;;12.50;11.30;;;;;;;;;;5072318;28;20452;-74
2022/05/07 01:28:40;;;;;;;11.13;10.23;;;;;;;;;;5072332;28;20444;-75
2022/05/07 01:31:07;;;;;;;14.30;10.80;;;;;;;;;;5071920;28;20979;-75
2022/05/07 01:33:35;;;;;;;12.83;11.63;;;;;;;;;;5072061;28;20444;-74
2022/05/07 01:36:02;;;;;;;11.17;10.17;;;;;;;;;;5072369;28;20449;-75
2022/05/07 01:38:31;;;;;;;11.77;10.77;;;;;;;;;;5072473;28;20544;-76
2022/05/07 01:40:59;;;;;;;12.70;11.50;;;;;;;;;;5071892;28;20999;-75
2022/05/07 01:43:27;;;;;;;12.53;11.33;;;;;;;;;;5072260;28;20464;-75
2022/05/07 01:45:55;;;;;;;14.50;10.37;;;;;;;;;;5072231;28;20495;-75
2022/05/07 01:48:21;;;;;;;13.20;12.00;;;;;;;;;;5072293;28;20483;-75
2022/05/07 01:50:48;;;;;;;12.17;11.07;;;;;;;;;;5072327;28;20501;-75
2022/05/07 01:53:15;;;;;;;12.63;11.33;;;;;;;;;;5071605;28;20448;-76
2022/05/07 01:55:44;;;;;;;12.60;11.17;;;;;;;;;;5072242;28;20440;-76
2022/05/07 01:58:11;;;;;;;14.50;10.57;;;;;;;;;;5072535;28;20503;-75
2022/05/07 02:00:40;;;;;;;12.87;11.67;;;;;;;;;;5087072;28;20475;-75
2022/05/07 02:03:07;;;;;;;12.57;11.37;;;;;;;;;;5088950;28;20612;-77
2022/05/07 02:05:34;;;;;;;13.20;11.90;;;;;;;;;;5089605;28;20437;-76
2022/05/07 02:08:02;;;;;;;12.77;11.50;;;;;;;;;;5088837;28;20461;-75
2022/05/07 02:10:29;;;;;;;13.60;11.67;;;;;;;;;;5088545;28;20982;-76
2022/05/07 02:12:58;;;;;;;11.50;10.40;;;;;;;;;;5086666;28;20959;-75
2022/05/07 02:15:25;;;;;;;12.60;11.30;;;;;;;;;;5073398;28;20456;-76
2022/05/07 02:17:52;;;;;;;12.30;11.10;;;;;;;;;;5071928;28;20837;-76
2022/05/07 02:20:19;;;;;;;11.73;10.73;;;;;;;;;;5071943;28;20452;-76
2022/05/07 02:22:46;;;;;;;13.60;11.33;;;;;;;;;;5071365;28;20492;-77
2022/05/07 02:25:13;;;;;;;12.00;11.00;;;;;;;;;;5071586;28;20709;-77
2022/05/07 02:27:42;;;;;;;11.57;10.57;;;;;;;;;;5071845;28;20814;-77
2022/05/07 02:30:11;;;;;;;12.13;11.13;;;;;;;;;;5071822;28;20456;-77
2022/05/07 02:32:38;;;;;;;11.73;10.67;;;;;;;;;;5070546;28;20522;-77
2022/05/07 02:35:06;;;;;;;11.80;10.70;;;;;;;;;;5070240;28;20519;-75
2022/05/07 02:37:33;;;;;;;12.40;11.30;;;;;;;;;;5070506;28;20928;-76
2022/05/07 02:40:00;;;;;;;11.70;10.07;;;;;;;;;;5070249;28;20440;-75
2022/05/07 02:42:39;;;;;;;14.00;10.27;;;;;;;;;;5070147;28;20480;-75
2022/05/07 02:45:07;;;;;;;11.97;10.77;;;;;;;;;;5070028;28;20531;-75
2022/05/07 02:47:36;;;;;;;10.93;9.93;;;;;;;;;;5069968;28;20995;-76
2022/05/07 02:50:03;;;;;;;11.70;10.60;;;;;;;;;;5069567;28;20897;-76
2022/05/07 02:52:33;;;;;;;10.67;9.67;;;;;;;;;;5069791;28;20447;-76
2022/05/07 02:55:00;;;;;;;11.53;10.63;;;;;;;;;;5069651;28;20452;-74
2022/05/07 02:57:27;;;;;;;9.97;9.07;;;;;;;;;;5069532;28;20473;-74
2022/05/07 02:59:54;;;;;;;12.50;11.30;;;;;;;;;;5069817;28;20459;-76
2022/05/07 03:02:21;;;;;;;10.87;9.97;;;;;;;;;;5069631;28;20488;-75
2022/05/07 03:04:49;;;;;;;11.00;9.90;;;;;;;;;;5069461;28;20864;-75
2022/05/07 03:07:17;;;;;;;11.00;10.03;;;;;;;;;;5058734;28;20468;-77
2022/05/07 03:09:44;;;;;;;11.73;10.60;;;;;;;;;;5050074;28;20445;-75
2022/05/07 03:12:11;;;;;;;11.23;10.23;;;;;;;;;;5049189;28;20472;-76
2022/05/07 03:14:38;;;;;;;11.07;10.17;;;;;;;;;;5049142;28;20445;-75
2022/05/07 03:17:05;;;;;;;10.17;9.33;;;;;;;;;;5049418;28;20468;-75
2022/05/07 03:19:33;;;;;;;11.10;10.10;;;;;;;;;;5049459;28;20450;-74
2022/05/07 03:22:01;;;;;;;10.40;9.50;;;;;;;;;;5049350;28;20496;-74
2022/05/07 03:24:28;;;;;;;10.57;9.53;;;;;;;;;;5048962;28;20454;-74
2022/05/07 03:26:55;;;;;;;10.43;9.53;;;;;;;;;;5053297;28;20534;-74
2022/05/07 03:29:22;;;;;;;10.93;9.67;;;;;;;;;;5065970;28;20467;-73
2022/05/07 03:31:49;;;;;;;10.27;9.43;;;;;;;;;;5014595;28;1024710;-74
2022/05/07 03:34:17;;;;;;;9.60;8.60;;;;;;;;;;5051351;28;20214;-74
2022/05/07 03:36:44;;;;;;;10.17;9.27;;;;;;;;;;5050472;28;20462;-75
2022/05/07 03:39:13;;;;;;;10.63;9.60;;;;;;;;;;5050411;28;20485;-76
2022/05/07 03:41:40;;;;;;;10.50;9.50;;;;;;;;;;5050269;28;20504;-76
2022/05/07 03:44:07;;;;;;;10.00;9.20;;;;;;;;;;5049729;28;20446;-76
2022/05/07 03:46:34;;;;;;;10.93;9.87;;;;;;;;;;5049623;28;20864;-76
2022/05/07 03:49:01;;;;;;;10.63;9.73;;;;;;;;;;5050154;28;20556;-76
2022/05/07 03:51:29;;;;;;;10.53;9.53;;;;;;;;;;5049747;28;20471;-74
2022/05/07 03:53:55;;;;;;;10.60;9.70;;;;;;;;;;5049833;28;20453;-74
2022/05/07 03:56:23;;;;;;;11.73;10.63;;;;;;;;;;5049556;28;20902;-74
2022/05/07 03:58:50;;;;;;;11.30;9.97;;;;;;;;;;5049641;28;20929;-75
2022/05/07 04:01:18;;;;;;;10.47;9.57;;;;;;;;;;5049891;28;20534;-75
2022/05/07 04:03:47;;;;;;;11.27;10.07;;;;;;;;;;5049720;28;20588;-75
2022/05/07 04:06:14;;;;;;;10.50;9.40;;;;;;;;;;5049818;28;20548;-74
2022/05/07 04:08:41;;;;;;;11.13;10.10;;;;;;;;;;5049766;28;20444;-75
2022/05/07 04:11:08;;;;;;;12.07;10.27;;;;;;;;;;5049768;28;20448;-75
2022/05/07 04:13:36;;;;;;;10.67;9.77;;;;;;;;;;5049480;28;20450;-74
2022/05/07 04:16:03;;;;;;;11.40;10.40;;;;;;;;;;5049737;28;20448;-75
2022/05/07 04:18:30;;;;;;;12.03;10.80;;;;;;;;;;5049456;28;20464;-75
2022/05/07 04:20:57;;;;;;;13.43;12.20;;;;;;;;;;5049337;28;20851;-75
2022/05/07 04:23:24;;;;;;;13.53;12.27;;;;;;;;;;5049148;28;20607;-76
2022/05/07 04:25:51;;;;;;;14.77;13.37;;;;;;;;;;5053393;28;20444;-74
2022/05/07 04:28:18;;;;;;;14.30;12.80;;;;;;;;;;5053427;28;20472;-74
2022/05/07 04:30:47;;;;;;;15.60;13.50;;;;;;;;;;5061090;28;20512;-75
2022/05/07 04:33:14;;;;;;;15.17;13.77;;;;;;;;;;5062101;28;20453;-75
2022/05/07 04:35:41;;;;;;;16.03;14.63;;;;;;;;;;5053583;28;20444;-74
2022/05/07 04:38:08;;;;;;;16.80;15.20;;;;;;;;;;5053500;28;20469;-75
2022/05/07 04:40:35;;;;;;;17.93;15.73;;;;;;;;;;5053204;28;20862;-75
2022/05/07 04:43:02;;;;;;;17.47;14.93;;;;;;;;;;5053111;28;20526;-76
2022/05/07 04:45:29;;;;;;;15.70;14.17;;;;;;;;;;5053404;28;20449;-74
2022/05/07 04:47:57;;;;;;;17.03;15.40;;;;;;;;;;5052916;28;20812;-75
2022/05/07 04:50:24;;;;;;;17.37;15.67;;;;;;;;;;5053263;28;20485;-74
2022/05/07 04:52:51;;;;;;;18.60;16.17;;;;;;;;;;5053110;28;20445;-75
2022/05/07 04:55:18;;;;;;;18.03;16.33;;;;;;;;;;5053397;28;20810;-74
2022/05/07 04:57:45;;;;;;;17.50;15.80;;;;;;;;;;5053051;28;20468;-75
2022/05/07 05:00:14;;;;;;;16.53;15.10;;;;;;;;;;5053201;28;20471;-75
2022/05/07 05:02:41;;;;;;;17.80;14.60;;;;;;;;;;5052470;28;20907;-75
2022/05/07 05:05:10;;;;;;;17.80;15.90;;;;;;;;;;5052953;28;20517;-76
2022/05/07 05:07:37;;;;;;;17.63;15.57;;;;;;;;;;5052912;28;20476;-75
2022/05/07 05:10:04;;;;;;;18.30;16.40;;;;;;;;;;5053034;28;20847;-73
2022/05/07 05:12:31;;;;;;;17.80;16.10;;;;;;;;;;5052496;28;21067;-74
2022/05/07 05:15:05;;;;;;;18.93;17.23;;;;;;;;;;5053410;28;20446;-74
2022/05/07 05:17:33;;;;;;;18.83;16.90;;;;;;;;;;5053250;28;20485;-75
2022/05/07 05:20:00;;;;;;;19.20;17.30;;;;;;;;;;5052572;28;20495;-76
2022/05/07 05:22:29;;;;;;;17.43;15.83;;;;;;;;;;5052993;28;20477;-74
2022/05/07 05:24:56;;;;;;;17.93;16.10;;;;;;;;;;5052774;28;20449;-75
2022/05/07 05:27:23;;;;;;;17.90;15.13;;;;;;;;;;5052535;28;20470;-76
2022/05/07 05:29:50;;;;;;;16.33;14.73;;;;;;;;;;5052257;28;20453;-75
2022/05/07 05:32:21;;;;;;;15.87;14.33;;;;;;;;;;5062570;28;20816;-74
2022/05/07 05:34:48;;;;;;;17.63;15.80;;;;;;;;;;5059854;28;20460;-74
2022/05/07 05:37:15;;;;;;;16.27;14.70;;;;;;;;;;5062094;28;20464;-74
2022/05/07 05:39:44;;;;;;;16.97;15.23;;;;;;;;;;5064009;28;20448;-75
2022/05/07 05:42:12;;;;;;;16.03;14.27;;;;;;;;;;5072223;28;20551;-75
2022/05/07 05:44:39;;;;;;;17.20;14.37;;;;;;;;;;5072007;28;20452;-75
2022/05/07 05:47:06;;;;;;;19.30;15.50;;;;;;;;;;5071956;28;20994;-75
2022/05/07 05:49:34;;;;;;;16.93;15.40;;;;;;;;;;5075285;28;20499;-75
2022/05/07 05:52:02;;;;;;;16.73;14.97;;;;;;;;;;5073710;28;20483;-74
2022/05/07 05:54:29;;;;;;;17.63;16.03;;;;;;;;;;5075455;28;20833;-74
2022/05/07 05:56:58;;;;;;;17.80;15.90;;;;;;;;;;5075329;28;20453;-74
2022/05/07 05:59:25;;;;;;;17.50;15.70;;;;;;;;;;5074006;28;20444;-75
2022/05/07 06:01:52;;;;;;;19.10;17.10;;;;;;;;;;5071963;28;20959;-75
2022/05/07 06:04:19;;;;;;;19.00;17.13;;;;;;;;;;5072812;28;20518;-75
2022/05/07 06:06:46;;;;;;;17.23;15.47;;;;;;;;;;5072871;28;20453;-75
2022/05/07 06:09:13;;;;;;;23.37;21.07;;;;;;;;;;5071736;28;20506;-75
2022/05/07 06:11:40;;;;;;;19.30;17.30;;;;;;;;;;5071548;28;20857;-76
2022/05/07 06:14:09;;;;;;;20.87;18.77;;;;;;;;;;5071121;28;20757;-75
2022/05/07 06:16:36;;;;;;;19.15;17.35;;;;;;;;;;5071155;28;20441;-75
2022/05/07 06:19:03;;;;;;;16.37;14.97;;;;;;;;;;5071445;28;20204;-76
2022/05/07 06:21:30;;;;;;;16.47;15.03;;;;;;;;;;5071439;28;20514;-76
2022/05/07 06:27:28;;;;;;;16.33;14.83;;;;;;;;;;5071027;28;20503;-76
2022/05/07 06:29:44;;;;;;;18.47;16.77;;;;;;;;;;5008780;28;20481;-75
2022/05/07 06:32:12;;;;;;;17.80;16.20;;;;;;;;;;5008698;28;20509;-76
2022/05/07 06:34:39;;;;;;;17.10;15.70;;;;;;;;;;5036281;28;20983;-74
2022/05/07 06:37:06;;;;;;;18.00;16.13;;;;;;;;;;5068843;28;20456;-75
2022/05/07 06:39:33;;;;;;;17.43;15.57;;;;;;;;;;5063867;28;20572;-75
2022/05/07 06:42:00;;;;;;;19.70;17.90;;;;;;;;;;5071109;28;20436;-76
2022/05/07 06:44:27;;;;;;;18.10;16.33;;;;;;;;;;5070780;28;20448;-76
2022/05/07 06:46:56;;;;;;;18.40;16.70;;;;;;;;;;5070030;28;20954;-75
2022/05/07 06:49:23;;;;;;;18.90;17.10;;;;;;;;;;5071027;28;20449;-75
2022/05/07 06:51:51;;;;;;;17.90;16.17;;;;;;;;;;5071259;28;20935;-75
2022/05/07 06:54:18;;;;;;;18.30;16.50;;;;;;;;;;5071047;28;20444;-75
2022/05/07 06:56:47;;;;;;;18.20;16.50;;;;;;;;;;5070904;28;20473;-76
2022/05/07 06:59:14;;;;;;;18.63;16.90;;;;;;;;;;5070530;28;20948;-74
2022/05/07 07:01:41;;;;;;;17.50;15.90;;;;;;;;;;5070923;28;20812;-75
2022/05/07 07:04:09;;;;;;;18.30;16.40;;;;;;;;;;5070498;28;20480;-75
2022/05/07 07:06:37;;;;;;;17.63;15.93;;;;;;;;;;5071169;28;20472;-76
2022/05/07 07:09:04;;;;;;;17.20;15.50;;;;;;;;;;5072470;28;20472;-76
2022/05/07 07:11:31;;;;;;;17.03;15.50;;;;;;;;;;5073576;28;20473;-75
2022/05/07 07:13:58;;;;;;;17.80;16.20;;;;;;;;;;5073220;28;20566;-76
2022/05/07 07:16:25;;;;;;;18.50;16.70;;;;;;;;;;5072070;28;20461;-75
2022/05/07 07:18:52;;;;;;;17.20;15.60;;;;;;;;;;5070929;28;20958;-76
2022/05/07 07:21:21;;;;;;;15.93;14.50;;;;;;;;;;5070799;28;20452;-74
2022/05/07 07:23:48;;;;;;;14.20;12.83;;;;;;;;;;5070368;28;20477;-75
2022/05/07 07:26:16;;;;;;;15.87;14.37;;;;;;;;;;5070909;28;20689;-76
2022/05/07 07:28:43;;;;;;;15.30;13.90;;;;;;;;;;5070754;28;20448;-75
2022/05/07 07:31:11;;;;;;;14.80;13.50;;;;;;;;;;5070282;28;20480;-74
2022/05/07 07:33:38;;;;;;;13.67;12.37;;;;;;;;;;5070597;28;20448;-74
2022/05/07 07:36:05;;;;;;;14.60;12.70;;;;;;;;;;5070247;28;20451;-75
2022/05/07 07:38:35;;;;;;;13.30;12.20;;;;;;;;;;5070787;28;20452;-76
2022/05/07 07:41:02;;;;;;;15.07;13.60;;;;;;;;;;5070672;28;20467;-75
2022/05/07 07:43:29;;;;;;;14.37;12.63;;;;;;;;;;5070123;28;20480;-75
2022/05/07 07:48:41;;;;;;;14.50;13.20;;;;;;;;;;5068069;28;20527;-75
2022/05/07 07:51:08;;;;;;;13.13;11.97;;;;;;;;;;5065680;28;20452;-75
2022/05/07 07:53:38;;;;;;;12.90;11.80;;;;;;;;;;5069422;28;20445;-75
2022/05/07 07:56:07;;;;;;;13.70;12.20;;;;;;;;;;5069846;28;20494;-76
2022/05/07 07:58:34;;;;;;;15.60;13.30;;;;;;;;;;5069025;28;20737;-74
2022/05/07 08:01:01;;;;;;;18.07;13.10;;;;;;;;;;5065186;28;20916;-75
2022/05/07 08:03:29;;;;;;;14.77;13.47;;;;;;;;;;5051024;28;20480;-76
2022/05/07 08:05:57;;;;;;;15.20;13.90;;;;;;;;;;5059848;28;20554;-76
2022/05/07 08:13:55;;;;;;;15.13;13.53;;;;;;;;;;5069926;28;20432;-77
2022/05/07 08:16:24;;;;;;;14.00;12.70;;;;;;;;;;5070210;28;20497;-76
2022/05/07 08:18:51;;;;;;;15.50;14.00;;;;;;;;;;5070543;28;20516;-75
2022/05/07 08:21:18;;;;;;;15.40;14.00;;;;;;;;;;5070243;28;20445;-75
2022/05/07 08:23:45;;;;;;;15.70;14.10;;;;;;;;;;5067499;28;20527;-75
2022/05/07 08:26:14;;;;;;;15.93;14.50;;;;;;;;;;5066103;28;20841;-75
2022/05/07 08:28:41;;;;;;;18.10;14.77;;;;;;;;;;5069069;28;20962;-77
2022/05/07 08:31:10;;;;;;;16.10;14.43;;;;;;;;;;5069593;28;20464;-76
2022/05/07 08:33:39;;;;;;;15.00;13.80;;;;;;;;;;5069478;28;20440;-76
2022/05/07 08:36:06;;;;;;;16.43;14.93;;;;;;;;;;5069171;28;20447;-75
2022/05/07 08:38:33;;;;;;;15.43;14.13;;;;;;;;;;5069992;28;20449;-76
2022/05/07 08:41:01;;;;;;;14.73;13.43;;;;;;;;;;5069896;28;20879;-75
2022/05/07 08:43:32;;;;;;;14.23;12.90;;;;;;;;;;5069226;28;20572;-75
2022/05/07 08:45:59;;;;;;;15.70;14.10;;;;;;;;;;5069763;28;20436;-75
2022/05/07 08:48:26;;;;;;;15.33;13.73;;;;;;;;;;5063772;28;20482;-75
2022/05/07 08:50:54;;;;;;;15.03;13.83;;;;;;;;;;5054470;28;21027;-76
2022/05/07 08:53:21;;;;;;;14.43;13.13;;;;;;;;;;5066741;28;20527;-74
2022/05/07 08:55:54;;;;;;;15.40;14.10;;;;;;;;;;5069712;28;20498;-76
2022/05/07 08:58:21;;;;;;;16.10;14.40;;;;;;;;;;5069894;28;20472;-76
2022/05/07 09:00:49;;;;;;;14.27;12.97;;;;;;;;;;5069606;28;20933;-75
2022/05/07 09:03:17;;;;;;;16.93;14.77;;;;;;;;;;5069071;28;20518;-75
2022/05/07 09:05:44;;;;;;;14.27;13.07;;;;;;;;;;5069925;28;20436;-74
2022/05/07 09:08:12;;;;;;;14.27;13.00;;;;;;;;;;5069853;28;20464;-77
2022/05/07 09:10:41;;;;;;;13.97;12.73;;;;;;;;;;5071589;28;20488;-75
2022/05/07 09:13:13;;;;;;;14.67;13.27;;;;;;;;;;5073416;28;20437;-75
2022/05/07 09:15:51;;;;;;;13.43;12.23;;;;;;;;;;5073428;28;20532;-76
2022/05/07 09:18:19;;;;;;;11.87;10.77;;;;;;;;;;5073138;28;20468;-75
2022/05/07 09:20:46;;;;;;;11.20;10.20;;;;;;;;;;5073048;28;20988;-76
2022/05/07 09:23:13;;;;;;;10.50;9.53;;;;;;;;;;5072752;28;20894;-76
2022/05/07 09:25:48;;;;;;;15.13;10.50;;;;;;;;;;5073177;28;20963;-76
2022/05/07 09:28:26;;;;;;;10.00;9.20;;;;;;;;;;5073041;28;20590;-74
2022/05/07 09:30:57;;;;;;;9.43;8.60;;;;;;;;;;5072737;28;20963;-76
2022/05/07 09:33:33;;;;;;;7.80;7.00;;;;;;;;;;5072978;28;20482;-76
2022/05/07 09:36:09;;;;;;;9.50;8.80;;;;;;;;;;5072478;28;20468;-75
2022/05/07 09:38:37;;;;;;;7.87;7.20;;;;;;;;;;5072503;28;20444;-75
2022/05/07 09:41:04;;;;;;;6.03;5.33;;;;;;;;;;5072813;28;20445;-75
2022/05/07 09:43:32;;;;;;;6.20;5.80;;;;;;;;;;5066367;28;20567;-74
2022/05/07 09:46:00;;;;;;;7.30;6.30;;;;;;;;;;5072179;28;20464;-77
2022/05/07 09:48:27;;;;;;;6.27;5.67;;;;;;;;;;5072232;28;20464;-75
2022/05/07 09:50:54;;;;;;;5.90;5.30;;;;;;;;;;5071940;28;20452;-75
2022/05/07 09:58:52;;;;;;;4.83;4.50;;;;;;;;;;5072632;28;20401;-75
2022/05/07 10:01:31;;;;;;;8.90;5.40;;;;;;;;;;5072228;28;20451;-76
2022/05/07 10:04:06;;;;;;;4.50;4.20;;;;;;;;;;5072353;28;20975;-75
2022/05/07 10:06:38;;;;;;;3.90;3.60;;;;;;;;;;5072240;28;20487;-75
2022/05/07 10:09:16;;;;;;;4.73;4.23;;;;;;;;;;5072035;28;20453;-75
2022/05/07 10:11:44;;;;;;;5.27;4.87;;;;;;;;;;5071899;28;20500;-76
2022/05/07 10:14:11;;;;;;;4.53;4.23;;;;;;;;;;5071699;28;20913;-75
2022/05/07 10:16:41;;;;;;;4.83;3.17;;;;;;;;;;5073121;28;20461;-74
2022/05/07 10:19:11;;;;;;;4.30;3.97;;;;;;;;;;5072522;28;20440;-75
2022/05/07 10:21:38;;;;;;;4.10;3.80;;;;;;;;;;5072447;28;20472;-75
2022/05/07 10:24:07;;;;;;;2.80;2.60;;;;;;;;;;5071722;28;20481;-75
2022/05/07 10:26:41;;;;;;;4.47;2.60;;;;;;;;;;5068456;28;20566;-75
2022/05/07 10:29:09;;;;;;;3.40;2.70;;;;;;;;;;5074810;28;20479;-75
2022/05/07 10:31:45;;;;;;;4.63;3.13;;;;;;;;;;5079420;28;20514;-73
2022/05/07 10:34:13;;;;;;;4.90;3.67;;;;;;;;;;5074560;28;20440;-75
2022/05/07 10:36:41;;;;;;;5.30;4.00;;;;;;;;;;5073534;28;20488;-74
2022/05/07 10:39:08;;;;;;;4.00;3.70;;;;;;;;;;5073393;28;20456;-74
2022/05/07 10:41:47;;;;;;;4.33;4.03;;;;;;;;;;5073298;28;20455;-76
2022/05/07 10:44:18;;;;;;;4.33;3.93;;;;;;;;;;5074110;28;20476;-74
2022/05/07 10:46:49;;;;;;;5.77;3.97;;;;;;;;;;5073744;28;20552;-73
2022/05/07 10:49:18;;;;;;;4.30;4.00;;;;;;;;;;5073195;28;20451;-74
2022/05/07 10:51:51;;;;;;;5.47;4.07;;;;;;;;;;5073126;28;20464;-74
2022/05/07 10:54:19;;;;;;;4.30;3.90;;;;;;;;;;5071893;28;20537;-73
2022/05/07 10:56:47;;;;;;;4.10;3.80;;;;;;;;;;5071963;28;20465;-72
2022/05/07 10:59:14;;;;;;;4.20;3.80;;;;;;;;;;5072021;28;20453;-73
2022/05/07 11:01:42;;;;;;;5.13;4.20;;;;;;;;;;5071984;28;20445;-73
2022/05/07 11:04:13;;;;;;;5.83;4.53;;;;;;;;;;5071347;28;20995;-73
2022/05/07 11:06:47;;;;;;;7.87;4.10;;;;;;;;;;5071789;28;20518;-75
2022/05/07 11:09:15;;;;;;;4.73;4.33;;;;;;;;;;5071671;28;20531;-74
2022/05/07 11:11:44;;;;;;;4.00;3.53;;;;;;;;;;5071811;28;20943;-73
2022/05/07 11:14:12;;;;;;;3.73;3.20;;;;;;;;;;5072164;28;20815;-75
2022/05/07 11:16:42;;;;;;;3.60;3.27;;;;;;;;;;5066843;28;20468;-74
2022/05/07 11:19:09;;;;;;;4.23;3.80;;;;;;;;;;5071324;28;20817;-75
2022/05/07 11:21:39;;;;;;;3.27;3.07;;;;;;;;;;5069894;28;20449;-76
2022/05/07 11:24:06;;;;;;;4.50;4.10;;;;;;;;;;5065862;28;20571;-74
2022/05/07 11:26:33;;;;;;;3.50;3.30;;;;;;;;;;5071142;28;20547;-75
2022/05/07 11:29:00;;;;;;;3.60;3.30;;;;;;;;;;5071067;28;20444;-76
2022/05/07 11:31:28;;;;;;;3.70;3.40;;;;;;;;;;5071105;28;20855;-75
2022/05/07 11:34:06;;;;;;;3.90;3.23;;;;;;;;;;5071165;28;20460;-73
2022/05/07 11:36:34;;;;;;;3.03;2.83;;;;;;;;;;5071168;28;20983;-74
2022/05/07 11:39:03;;;;;;;3.83;3.00;;;;;;;;;;5070718;28;20855;-75
2022/05/07 11:41:30;;;;;;;6.20;3.00;;;;;;;;;;5070693;28;20440;-75
2022/05/07 11:46:52;;;;;;;2.90;2.57;;;;;;;;;;5070920;28;20491;-75
2022/05/07 11:49:28;;;;;;;3.10;2.80;;;;;;;;;;5070925;28;20466;-75
2022/05/07 11:52:04;;;;;;;3.70;2.57;;;;;;;;;;5070702;28;20859;-75
2022/05/07 11:54:33;;;;;;;3.07;2.43;;;;;;;;;;5070656;28;20920;-76
2022/05/07 11:57:00;;;;;;;2.30;2.20;;;;;;;;;;5066779;28;20465;-74
2022/05/07 11:59:27;;;;;;;3.07;2.43;;;;;;;;;;5069752;28;20445;-77
2022/05/07 12:01:55;;;;;;;3.33;3.00;;;;;;;;;;5071107;28;20452;-75
2022/05/07 12:04:31;;;;;;;2.90;2.60;;;;;;;;;;5070138;28;20483;-74
2022/05/07 12:06:58;;;;;;;3.83;3.37;;;;;;;;;;5070767;28;20480;-76
2022/05/07 12:09:28;;;;;;;3.57;3.23;;;;;;;;;;5070871;28;20456;-75
2022/05/07 12:11:56;;;;;;;3.77;2.90;;;;;;;;;;5070594;28;20529;-75
2022/05/07 12:14:23;;;;;;;3.20;3.00;;;;;;;;;;5070370;28;20530;-74
2022/05/07 12:19:44;;;;;;;3.40;3.10;;;;;;;;;;5045705;28;20432;-74
2022/05/07 12:30:26;;;;;;;3.00;2.90;;;;;;;;;;5070581;28;20502;-75
2022/05/07 12:32:54;;;;;;;5.37;3.47;;;;;;;;;;5069975;28;20437;-74
2022/05/07 12:35:21;;;;;;;3.40;3.10;;;;;;;;;;5070047;28;20446;-74
2022/05/07 12:37:48;;;;;;;3.60;2.53;;;;;;;;;;5069823;28;20467;-75
2022/05/07 12:40:15;;;;;;;3.33;2.87;;;;;;;;;;5070371;28;20440;-75
2022/05/07 12:42:44;;;;;;;3.87;2.43;;;;;;;;;;5070112;28;20761;-76
2022/05/07 12:45:11;;;;;;;3.27;2.97;;;;;;;;;;5071551;28;20480;-74
2022/05/07 12:47:39;;;;;;;3.80;2.90;;;;;;;;;;5072377;28;20519;-76
2022/05/07 12:50:07;;;;;;;3.60;2.70;;;;;;;;;;5073807;28;20535;-77
2022/05/07 12:52:34;;;;;;;2.90;2.70;;;;;;;;;;5073966;28;20480;-75
2022/05/07 12:55:01;;;;;;;6.13;2.37;;;;;;;;;;5074174;28;20440;-75
2022/05/07 12:57:30;;;;;;;2.60;2.40;;;;;;;;;;5073537;28;20471;-75
2022/05/07 12:59:59;;;;;;;2.57;2.37;;;;;;;;;;5073912;28;20451;-75
2022/05/07 13:02:26;;;;;;;2.43;2.23;;;;;;;;;;5073631;28;20445;-73
2022/05/07 13:04:53;;;;;;;3.97;2.50;;;;;;;;;;5073349;28;20476;-75
2022/05/07 13:07:20;;;;;;;8.77;3.27;;;;;;;;;;5073721;28;20464;-75
2022/05/07 13:09:47;;;;;;;4.67;2.70;;;;;;;;;;5073609;28;20443;-75
2022/05/07 13:12:14;;;;;;;2.80;2.60;;;;;;;;;;5073661;28;20982;-75
2022/05/07 13:14:41;;;;;;;3.03;2.40;;;;;;;;;;5073349;28;20444;-75
2022/05/07 13:17:09;;;;;;;2.90;2.60;;;;;;;;;;5073499;28;20514;-76
2022/05/07 13:19:36;;;;;;;2.40;2.20;;;;;;;;;;5073979;28;20443;-75
2022/05/07 13:22:04;;;;;;;2.53;2.20;;;;;;;;;;5074069;28;20440;-75
2022/05/07 13:24:31;;;;;;;2.47;2.30;;;;;;;;;;5073310;28;20995;-76
2022/05/07 13:26:58;;;;;;;2.50;2.30;;;;;;;;;;5073614;28;21021;-77
2022/05/07 13:29:28;;;;;;;2.50;2.17;;;;;;;;;;5073572;28;20441;-76
2022/05/07 13:31:55;;;;;;;2.23;2.13;;;;;;;;;;5073222;28;20495;-76
2022/05/07 13:34:24;;;;;;;3.13;2.40;;;;;;;;;;5072248;28;20430;-75
2022/05/07 13:36:51;;;;;;;4.93;2.20;;;;;;;;;;5073493;28;20465;-75
2022/05/07 13:39:18;;;;;;;2.27;2.17;;;;;;;;;;5073504;28;20535;-75
2022/05/07 13:41:46;;;;;;;2.50;2.30;;;;;;;;;;5073255;28;20448;-75
2022/05/07 13:44:13;;;;;;;2.60;2.40;;;;;;;;;;5072837;28;20451;-75
2022/05/07 13:46:41;;;;;;;2.97;2.70;;;;;;;;;;5073698;28;20473;-75
2022/05/07 13:49:08;;;;;;;3.67;2.87;;;;;;;;;;5073349;28;20444;-76
2022/05/07 13:51:36;;;;;;;2.70;2.40;;;;;;;;;;5073454;28;20472;-76
2022/05/07 13:54:03;;;;;;;2.67;2.40;;;;;;;;;;5073054;28;20449;-76
2022/05/07 13:56:31;;;;;;;3.10;2.53;;;;;;;;;;5072854;28;20469;-76
2022/05/07 13:58:58;;;;;;;2.03;1.93;;;;;;;;;;5072474;28;20909;-76
2022/05/07 14:01:25;;;;;;;2.63;2.40;;;;;;;;;;5073021;28;20498;-76
2022/05/07 14:03:52;;;;;;;4.13;2.30;;;;;;;;;;5072223;28;20903;-75
2022/05/07 14:06:19;;;;;;;2.73;2.30;;;;;;;;;;5072466;28;20571;-76
2022/05/07 14:08:48;;;;;;;2.57;2.43;;;;;;;;;;5072510;28;20535;-76
2022/05/07 14:11:15;;;;;;;2.93;2.67;;;;;;;;;;5072519;28;20448;-75
2022/05/07 14:13:42;;;;;;;2.77;2.57;;;;;;;;;;5072202;28;20954;-74
2022/05/07 14:16:10;;;;;;;3.03;2.73;;;;;;;;;;5072311;28;20436;-74
2022/05/07 14:18:38;;;;;;;3.13;2.63;;;;;;;;;;5072579;28;20448;-74
2022/05/07 14:21:05;;;;;;;3.23;3.00;;;;;;;;;;5072309;28;20866;-74
2022/05/07 14:23:32;;;;;;;2.77;2.57;;;;;;;;;;5072133;28;20455;-74
2022/05/07 14:26:01;;;;;;;2.67;2.57;;;;;;;;;;5072748;28;20484;-74
2022/05/07 14:28:28;;;;;;;4.70;2.43;;;;;;;;;;5073833;28;20494;-74
2022/05/07 14:30:58;;;;;;;2.77;2.57;;;;;;;;;;5072553;28;20456;-73
2022/05/07 14:33:25;;;;;;;3.47;3.17;;;;;;;;;;5072057;28;20905;-74
2022/05/07 14:35:52;;;;;;;3.27;2.97;;;;;;;;;;5071780;28;20449;-75
2022/05/07 14:38:20;;;;;;;3.45;2.70;;;;;;;;;;5070925;28;20438;-74
2022/05/07 14:40:48;;;;;;;2.57;2.37;;;;;;;;;;5071555;28;20202;-75
2022/05/07 14:43:17;;;;;;;3.23;3.00;;;;;;;;;;5071567;28;20445;-75
2022/05/07 14:45:44;;;;;;;3.00;2.70;;;;;;;;;;5071916;28;20480;-74
2022/05/07 14:48:11;;;;;;;4.35;3.40;;;;;;;;;;5071374;28;20646;-74
2022/05/07 14:50:38;;;;;;;3.93;3.17;;;;;;;;;;5071720;28;20248;-74
2022/05/07 14:53:06;;;;;;;3.93;2.97;;;;;;;;;;5071617;28;20440;-73
2022/05/07 14:55:33;;;;;;;3.00;2.80;;;;;;;;;;5072114;28;20447;-74
2022/05/07 14:58:02;;;;;;;5.93;3.13;;;;;;;;;;5071548;28;20551;-74
2022/05/07 15:00:30;;;;;;;5.60;2.97;;;;;;;;;;5071418;28;20448;-74
2022/05/07 15:02:57;;;;;;;3.03;2.93;;;;;;;;;;5071297;28;20900;-74
2022/05/07 15:05:24;;;;;;;4.20;3.80;;;;;;;;;;5071530;28;20476;-74
2022/05/07 15:07:51;;;;;;;3.67;3.43;;;;;;;;;;5070934;28;20542;-74